createdAt,value
2018-10-16T00:00:59.014Z,17.50
2018-10-16T00:03:30.761Z,20.23
2018-10-16T00:06:02.650Z,16.90
2018-10-16T00:08:33.805Z,18.03
2018-10-16T00:11:05.356Z,19.63
2018-10-16T00:13:36.664Z,17.87
2018-10-16T00:16:08.006Z,22.83
2018-10-16T00:18:39.577Z,17.20
2018-10-16T00:21:10.768Z,20.70
2018-10-16T00:23:42.523Z,17.13
2018-10-16T00:26:14.001Z,18.20
2018-10-16T00:28:45.211Z,16.67
2018-10-16T00:31:16.813Z,17.93
2018-10-16T00:33:48.133Z,16.07
2018-10-16T00:36:19.388Z,16.47
2018-10-16T00:38:50.552Z,20.73
2018-10-16T00:41:22.130Z,19.23
2018-10-16T00:43:53.426Z,17.23
2018-10-16T00:46:24.669Z,19.37
2018-10-16T00:48:56.242Z,21.43
2018-10-16T00:51:27.452Z,19.30
2018-10-16T00:53:58.659Z,22.50
2018-10-16T00:56:30.390Z,17.93
2018-10-16T00:59:01.587Z,18.87
2018-10-16T01:01:33.842Z,20.23
2018-10-16T01:04:06.197Z,20.00
2018-10-16T01:06:38.162Z,21.17
2018-10-16T01:09:13.315Z,18.47
2018-10-16T01:11:44.518Z,18.83
2018-10-16T01:14:15.710Z,22.20
2018-10-16T01:16:46.900Z,21.53
2018-10-16T01:19:18.095Z,22.63
2018-10-16T01:21:50.242Z,19.17
2018-10-16T01:24:21.672Z,20.90
2018-10-16T01:26:53.021Z,19.80
2018-10-16T01:29:24.630Z,20.57
2018-10-16T01:31:55.810Z,18.53
2018-10-16T01:34:26.983Z,21.53
2018-10-16T01:36:58.492Z,22.47
2018-10-16T01:39:30.062Z,18.67
2018-10-16T01:42:01.224Z,19.13
2018-10-16T01:44:32.436Z,20.40
2018-10-16T01:47:04.106Z,20.00
2018-10-16T01:49:35.526Z,20.87
2018-10-16T01:52:06.745Z,20.20
2018-10-16T01:54:37.948Z,21.93
2018-10-16T01:57:09.450Z,19.43
2018-10-16T01:59:41.059Z,22.83
2018-10-16T02:02:12.296Z,20.57
2018-10-16T02:04:44.015Z,21.53
2018-10-16T02:07:16.016Z,21.13
2018-10-16T02:09:47.180Z,19.83
2018-10-16T02:12:18.813Z,22.03
2018-10-16T02:14:50.500Z,19.80
2018-10-16T02:17:21.776Z,20.40
2018-10-16T02:19:52.933Z,24.10
2018-10-16T02:22:24.116Z,22.63
2018-10-16T02:24:55.732Z,23.07
2018-10-16T02:27:26.927Z,25.90
2018-10-16T02:29:58.302Z,24.43
2018-10-16T02:32:29.454Z,27.80
2018-10-16T02:35:01.508Z,24.30
2018-10-16T02:37:33.144Z,26.43
2018-10-16T02:40:04.557Z,18.83
2018-10-16T02:42:35.763Z,20.10
2018-10-16T02:45:08.214Z,19.37
2018-10-16T02:47:39.648Z,21.77
2018-10-16T02:50:12.408Z,21.63
2018-10-16T02:52:43.931Z,18.90
2018-10-16T02:55:15.090Z,21.73
2018-10-16T02:57:46.961Z,19.10
2018-10-16T03:00:18.280Z,20.77
2018-10-16T03:02:49.753Z,21.40
2018-10-16T03:05:21.342Z,19.77
2018-10-16T03:07:52.940Z,21.43
2018-10-16T03:10:24.365Z,22.20
2018-10-16T03:12:55.522Z,22.37
2018-10-16T03:15:27.108Z,24.80
2018-10-16T03:17:58.550Z,24.07
2018-10-16T03:20:30.165Z,23.70
2018-10-16T03:23:01.668Z,21.57
2018-10-16T03:25:32.858Z,25.33
2018-10-16T03:28:04.021Z,28.67
2018-10-16T03:30:36.017Z,23.47
2018-10-16T03:33:07.467Z,24.53
2018-10-16T03:35:38.642Z,28.27
2018-10-16T03:38:10.497Z,24.57
2018-10-16T03:40:42.055Z,21.90
2018-10-16T03:43:13.204Z,22.10
2018-10-16T03:45:44.414Z,22.03
2018-10-16T03:48:15.903Z,22.20
2018-10-16T03:50:47.731Z,21.03
2018-10-16T03:53:18.970Z,20.37
2018-10-16T03:55:50.125Z,21.00
2018-10-16T03:58:21.571Z,21.57
2018-10-16T04:00:53.013Z,21.50
2018-10-16T04:03:24.193Z,23.63
2018-10-16T04:05:55.878Z,21.77
2018-10-16T04:08:27.461Z,22.37
2018-10-16T04:10:58.671Z,22.13
2018-10-16T04:13:30.402Z,22.63
2018-10-16T04:16:01.575Z,21.40
2018-10-16T04:18:32.774Z,21.70
2018-10-16T04:21:03.937Z,22.43
2018-10-16T04:23:35.104Z,21.77
2018-10-16T04:26:06.599Z,19.40
2018-10-16T04:28:37.768Z,22.37
2018-10-16T04:31:10.031Z,18.93
2018-10-16T04:33:41.454Z,26.90
2018-10-16T04:36:12.878Z,22.03
2018-10-16T04:38:44.107Z,25.63
2018-10-16T04:41:15.559Z,26.90
2018-10-16T04:43:46.726Z,24.30
2018-10-16T04:46:17.889Z,19.83
2018-10-16T04:48:49.614Z,22.07
2018-10-16T04:51:21.093Z,24.27
2018-10-16T04:53:52.249Z,24.27
2018-10-16T04:56:23.696Z,24.93
2018-10-16T04:58:55.240Z,23.90
2018-10-16T05:01:27.305Z,23.87
2018-10-16T05:03:58.714Z,27.17
2018-10-16T05:06:30.515Z,24.70
2018-10-16T05:09:01.963Z,24.43
2018-10-16T05:11:33.195Z,27.60
2018-10-16T05:14:04.349Z,22.70
2018-10-16T05:16:35.826Z,22.10
2018-10-16T05:19:07.227Z,25.67
2018-10-16T05:21:38.857Z,26.00
2018-10-16T05:24:10.971Z,26.30
2018-10-16T05:26:42.489Z,28.73
2018-10-16T05:29:13.800Z,24.93
2018-10-16T05:31:44.963Z,28.53
2018-10-16T05:34:16.157Z,32.53
2018-10-16T05:36:47.364Z,34.03
2018-10-16T05:39:18.692Z,35.07
2018-10-16T05:41:50.075Z,27.00
2018-10-16T05:44:21.577Z,31.03
2018-10-16T05:46:52.751Z,30.47
2018-10-16T05:49:24.297Z,32.27
2018-10-16T05:51:55.485Z,29.03
2018-10-16T05:54:27.119Z,38.57
2018-10-16T05:56:58.239Z,37.87
2018-10-16T05:59:29.400Z,31.37
2018-10-16T06:02:01.186Z,35.00
2018-10-16T06:04:32.334Z,27.30
2018-10-16T06:07:03.775Z,27.87
2018-10-16T06:09:35.738Z,22.40
2018-10-16T06:12:07.199Z,29.93
2018-10-16T06:14:38.782Z,24.50
2018-10-16T06:17:09.946Z,32.07
2018-10-16T06:19:41.655Z,22.27
2018-10-16T06:22:13.189Z,23.17
2018-10-16T06:24:44.366Z,31.57
2018-10-16T06:27:15.557Z,35.73
2018-10-16T06:29:46.732Z,35.87
2018-10-16T06:32:17.856Z,27.67
2018-10-16T06:34:49.405Z,31.10
2018-10-16T06:37:20.865Z,28.73
2018-10-16T06:39:52.320Z,29.17
2018-10-16T06:42:36.790Z,27.53
2018-10-16T06:45:10.336Z,25.03
2018-10-16T06:47:41.548Z,24.57
2018-10-16T06:50:13.115Z,24.27
2018-10-16T06:52:44.265Z,23.47
2018-10-16T06:55:15.791Z,34.23
2018-10-16T06:57:47.270Z,26.30
2018-10-16T07:00:19.192Z,24.83
2018-10-16T07:02:50.321Z,22.03
2018-10-16T07:05:21.910Z,27.00
2018-10-16T07:07:53.460Z,28.73
2018-10-16T07:10:24.647Z,23.30
2018-10-16T07:12:56.101Z,26.20
2018-10-16T07:15:27.658Z,26.70
2018-10-16T07:17:59.101Z,28.33
2018-10-16T07:20:30.612Z,21.07
2018-10-16T07:23:01.828Z,26.30
2018-10-16T07:25:33.345Z,26.50
2018-10-16T07:28:04.496Z,24.70
2018-10-16T07:30:36.542Z,20.30
2018-10-16T07:33:07.716Z,23.50
2018-10-16T07:35:39.312Z,28.03
2018-10-16T07:38:10.645Z,26.27
2018-10-16T07:40:42.021Z,24.83
2018-10-16T07:43:13.457Z,25.63
2018-10-16T07:45:44.857Z,26.37
2018-10-16T07:48:16.051Z,24.70
2018-10-16T07:50:47.596Z,27.90
2018-10-16T07:53:19.154Z,25.53
2018-10-16T07:55:51.143Z,23.70
2018-10-16T07:58:22.584Z,25.03
2018-10-16T08:00:54.218Z,24.00
2018-10-16T08:03:25.413Z,23.27
2018-10-16T08:05:56.912Z,23.80
2018-10-16T08:08:28.387Z,26.87
2018-10-16T08:11:00.229Z,32.73
2018-10-16T08:13:31.697Z,32.33
2018-10-16T08:16:02.895Z,29.80
2018-10-16T08:18:34.124Z,29.63
2018-10-16T08:21:05.303Z,23.33
2018-10-16T08:23:36.464Z,22.87
2018-10-16T08:26:09.795Z,29.43
2018-10-16T08:28:40.938Z,25.77
2018-10-16T08:31:12.356Z,24.07
2018-10-16T08:33:43.591Z,24.80
2018-10-16T08:36:14.911Z,25.60
2018-10-16T08:39:21.101Z,27.73
2018-10-16T08:42:22.493Z,24.50
2018-10-16T08:45:49.003Z,27.00
2018-10-16T08:49:13.905Z,23.33
2018-10-16T08:51:49.774Z,24.53
2018-10-16T08:54:21.443Z,27.87
2018-10-16T08:56:52.863Z,29.77
2018-10-16T08:59:24.500Z,26.53
2018-10-16T09:01:55.691Z,31.30
2018-10-16T09:04:27.348Z,27.07
2018-10-16T09:06:58.564Z,24.30
2018-10-16T09:09:30.012Z,25.07
2018-10-16T09:12:01.317Z,28.60
2018-10-16T09:14:32.822Z,24.40
2018-10-16T09:17:04.162Z,24.60
2018-10-16T09:19:35.703Z,23.17
2018-10-16T09:22:07.073Z,29.87
2018-10-16T09:24:38.505Z,30.93
2018-10-16T09:27:09.897Z,25.83
2018-10-16T09:29:41.495Z,26.90
2018-10-16T09:32:12.712Z,27.60
2018-10-16T09:34:44.125Z,26.60
2018-10-16T09:37:15.960Z,26.13
2018-10-16T09:39:47.414Z,23.53
2018-10-16T09:42:18.971Z,26.30
2018-10-16T09:44:50.608Z,29.07
2018-10-16T09:47:22.173Z,27.87
2018-10-16T09:49:53.715Z,32.27
2018-10-16T09:52:25.373Z,25.93
2018-10-16T09:54:56.569Z,29.30
2018-10-16T09:57:27.791Z,30.15
2018-10-16T09:59:58.946Z,25.30
2018-10-16T10:02:30.769Z,27.45
2018-10-16T10:05:02.468Z,24.23
2018-10-16T10:07:34.003Z,24.85
2018-10-16T10:10:05.136Z,34.73
2018-10-16T10:12:36.425Z,26.68
2018-10-16T10:15:07.879Z,26.75
2018-10-16T10:17:39.047Z,26.37
2018-10-16T10:20:11.231Z,26.48
2018-10-16T10:22:42.897Z,25.62
2018-10-16T10:25:14.750Z,27.10
2018-10-16T10:27:46.135Z,25.15
2018-10-16T10:30:17.345Z,27.40
2018-10-16T10:32:48.586Z,28.90
2018-10-16T10:35:20.068Z,22.85
2018-10-16T10:37:51.199Z,24.77
2018-10-16T10:40:22.719Z,21.90
2018-10-16T10:42:54.180Z,26.82
2018-10-16T10:45:25.879Z,25.10
2018-10-16T10:47:57.401Z,22.93
2018-10-16T10:50:28.937Z,22.62
2018-10-16T10:53:00.299Z,22.50
2018-10-16T10:55:31.496Z,24.45
2018-10-16T10:58:02.852Z,26.07
2018-10-16T11:00:34.064Z,22.10
2018-10-16T11:03:05.610Z,22.22
2018-10-16T11:05:37.060Z,21.77
2018-10-16T11:08:08.570Z,20.35
2018-10-16T11:10:40.059Z,25.37
2018-10-16T11:13:11.677Z,26.40
2018-10-16T11:15:43.037Z,22.22
2018-10-16T11:18:14.948Z,20.48
2018-10-16T11:20:46.347Z,19.25
2018-10-16T11:23:18.280Z,19.87
2018-10-16T11:25:49.757Z,26.68
2018-10-16T11:28:21.026Z,21.37
2018-10-16T11:30:52.648Z,19.73
2018-10-16T11:33:23.884Z,21.60
2018-10-16T11:35:55.434Z,22.55
2018-10-16T11:38:27.156Z,19.00
2018-10-16T11:40:58.370Z,27.48
2018-10-16T11:43:29.808Z,23.05
2018-10-16T11:46:00.981Z,20.17
2018-10-16T11:48:32.578Z,21.95
2018-10-16T11:51:03.859Z,21.62
2018-10-16T11:53:35.190Z,20.00
2018-10-16T11:56:06.479Z,27.62
2018-10-16T11:58:37.959Z,25.40
2018-10-16T12:01:09.533Z,26.30
2018-10-16T12:03:40.768Z,24.00
2018-10-16T12:06:12.054Z,26.20
2018-10-16T12:08:43.679Z,28.00
2018-10-16T12:11:15.152Z,25.10
2018-10-16T12:13:47.255Z,24.65
2018-10-16T12:16:19.297Z,23.22
2018-10-16T12:19:09.199Z,21.65
2018-10-16T12:21:40.350Z,24.75
2018-10-16T12:24:11.869Z,19.82
2018-10-16T12:26:43.396Z,20.50
2018-10-16T12:29:14.946Z,24.18
2018-10-16T12:31:46.862Z,23.18
2018-10-16T12:34:18.041Z,23.38
2018-10-16T12:36:49.426Z,21.25
2018-10-16T12:39:21.114Z,14.13
2018-10-16T12:41:52.328Z,17.20
2018-10-16T12:44:23.507Z,20.35
2018-10-16T12:46:54.724Z,20.05
2018-10-16T12:49:25.889Z,16.17
2018-10-16T12:51:57.872Z,16.95
2018-10-16T12:54:29.691Z,17.40
2018-10-16T12:57:01.681Z,18.75
2018-10-16T12:59:32.781Z,17.45
2018-10-16T13:02:03.919Z,18.35
2018-10-16T13:04:35.078Z,16.52
2018-10-16T13:07:43.551Z,17.15
2018-10-16T13:10:19.402Z,19.07
2018-10-16T13:12:50.826Z,17.37
2018-10-16T13:15:22.021Z,19.55
2018-10-16T13:17:53.594Z,20.88
2018-10-16T13:20:25.033Z,17.75
2018-10-16T13:22:56.615Z,20.68
2018-10-16T13:25:27.944Z,14.25
2018-10-16T13:27:59.363Z,19.12
2018-10-16T13:30:30.827Z,15.88
2018-10-16T13:33:02.223Z,14.83
2018-10-16T13:35:33.424Z,13.43
2018-10-16T13:38:04.611Z,14.80
2018-10-16T13:40:36.007Z,18.35
2018-10-16T13:43:08.313Z,17.90
2018-10-16T13:45:39.779Z,16.02
2018-10-16T13:48:11.203Z,16.00
2018-10-16T13:50:42.711Z,17.87
2018-10-16T13:53:13.913Z,19.15
2018-10-16T13:55:45.065Z,14.78
2018-10-16T13:58:16.458Z,21.15
2018-10-16T14:00:47.733Z,14.47
2018-10-16T14:03:19.188Z,22.77
2018-10-16T14:05:50.579Z,14.60
2018-10-16T14:08:21.771Z,17.20
2018-10-16T14:10:52.945Z,12.70
2018-10-16T14:13:24.586Z,11.00
2018-10-16T14:15:55.808Z,15.90
2018-10-16T14:18:27.278Z,13.95
2018-10-16T14:20:58.700Z,15.03
2018-10-16T14:23:30.730Z,16.45
2018-10-16T14:26:02.390Z,18.30
2018-10-16T14:28:33.527Z,16.85
2018-10-16T14:31:04.679Z,18.15
2018-10-16T14:33:36.302Z,13.05
2018-10-16T14:36:07.515Z,13.40
2018-10-16T14:38:38.907Z,11.30
2018-10-16T14:41:10.305Z,14.43
2018-10-16T14:43:42.237Z,16.93
2018-10-16T14:46:14.213Z,13.78
2018-10-16T14:48:45.741Z,13.20
2018-10-16T14:51:16.903Z,11.88
2018-10-16T14:53:48.134Z,14.85
2018-10-16T14:56:19.378Z,14.45
2018-10-16T14:58:50.748Z,15.33
2018-10-16T15:01:22.134Z,10.80
2018-10-16T15:03:53.740Z,11.63
2018-10-16T15:06:24.860Z,17.33
2018-10-16T15:08:56.372Z,13.78
2018-10-16T15:11:27.772Z,16.60
2018-10-16T15:13:59.230Z,13.87
2018-10-16T15:16:30.399Z,13.23
2018-10-16T15:19:01.854Z,14.13
2018-10-16T15:21:33.945Z,17.53
2018-10-16T15:24:05.698Z,10.23
2018-10-16T15:26:37.201Z,16.20
2018-10-16T15:29:08.645Z,14.37
2018-10-16T15:31:40.071Z,19.27
2018-10-16T15:34:11.282Z,18.80
2018-10-16T15:36:42.843Z,14.83
2018-10-16T15:39:14.742Z,15.20
2018-10-16T15:41:46.157Z,15.47
2018-10-16T15:44:17.704Z,16.20
2018-10-16T15:46:48.981Z,13.53
2018-10-16T15:49:20.073Z,17.40
2018-10-16T15:51:51.270Z,12.43
2018-10-16T15:54:22.906Z,15.73
2018-10-16T15:56:54.386Z,15.50
2018-10-16T15:59:25.569Z,12.43
2018-10-16T16:01:57.091Z,16.07
2018-10-16T16:04:28.626Z,11.53
2018-10-16T16:07:00.041Z,14.33
2018-10-16T16:09:31.227Z,18.53
2018-10-16T16:12:02.483Z,14.03
2018-10-16T16:14:33.642Z,15.70
2018-10-16T16:17:05.532Z,17.53
2018-10-16T16:19:36.993Z,18.90
2018-10-16T16:22:08.520Z,14.03
2018-10-16T16:24:40.394Z,13.17
2018-10-16T16:27:11.795Z,16.80
2018-10-16T16:29:43.262Z,16.00
2018-10-16T16:32:14.904Z,14.87
2018-10-16T16:34:46.056Z,15.13
2018-10-16T16:37:17.736Z,18.03
2018-10-16T16:39:49.501Z,15.57
2018-10-16T16:42:20.733Z,15.87
2018-10-16T16:44:52.202Z,13.53
2018-10-16T16:47:23.651Z,17.27
2018-10-16T16:49:55.584Z,16.20
2018-10-16T16:52:27.080Z,17.50
2018-10-16T16:54:58.316Z,19.17
2018-10-16T16:57:29.980Z,20.10
2018-10-16T17:00:01.120Z,14.87
2018-10-16T17:02:32.978Z,16.67
2018-10-16T17:05:04.573Z,19.73
2018-10-16T17:07:36.340Z,17.23
2018-10-16T17:10:08.446Z,18.63
2018-10-16T17:12:40.846Z,17.33
2018-10-16T17:15:17.294Z,20.33
2018-10-16T17:17:48.899Z,20.60
2018-10-16T17:20:20.799Z,20.80
2018-10-16T17:22:51.968Z,20.27
2018-10-16T17:25:23.572Z,18.63
2018-10-16T17:27:54.641Z,19.23
2018-10-16T17:30:26.192Z,19.73
2018-10-16T17:32:58.089Z,17.17
2018-10-16T17:35:29.222Z,20.70
2018-10-16T17:38:00.701Z,19.77
2018-10-16T17:40:32.466Z,19.67
2018-10-16T17:43:04.109Z,20.33
2018-10-16T17:45:35.263Z,19.60
2018-10-16T17:48:06.917Z,19.20
2018-10-16T17:50:38.362Z,16.10
2018-10-16T17:53:09.863Z,18.70
2018-10-16T17:55:41.112Z,19.93
2018-10-16T17:58:13.052Z,21.87
2018-10-16T18:00:44.593Z,19.30
2018-10-16T18:03:15.896Z,18.50
2018-10-16T18:05:46.950Z,21.63
2018-10-16T18:08:18.457Z,20.80
2018-10-16T18:10:49.931Z,18.40
2018-10-16T18:13:21.127Z,20.10
2018-10-16T18:15:52.701Z,18.90
2018-10-16T18:18:24.325Z,20.93
2018-10-16T18:20:55.779Z,19.30
2018-10-16T18:23:26.939Z,19.67
2018-10-16T18:25:58.578Z,19.60
2018-10-16T18:28:29.986Z,21.57
2018-10-16T18:31:01.611Z,18.17
2018-10-16T18:33:33.393Z,15.90
2018-10-16T18:36:04.823Z,16.10
2018-10-16T18:38:36.260Z,17.73
2018-10-16T18:41:08.145Z,15.17
2018-10-16T18:43:58.703Z,18.37
2018-10-16T18:46:30.506Z,20.83
2018-10-16T18:49:01.653Z,21.77
2018-10-16T18:51:32.996Z,24.87
2018-10-16T18:54:04.215Z,17.57
2018-10-16T18:56:35.387Z,18.10
2018-10-16T18:59:06.630Z,18.07
2018-10-16T19:01:38.250Z,17.90
2018-10-16T19:04:09.715Z,21.73
2018-10-16T19:06:41.027Z,21.50
2018-10-16T19:09:13.511Z,21.33
2018-10-16T19:11:45.014Z,23.83
2018-10-16T19:14:16.206Z,23.33
2018-10-16T19:16:47.409Z,21.63
2018-10-16T19:19:18.655Z,25.37
2018-10-16T19:21:49.904Z,21.90
2018-10-16T19:24:21.347Z,20.37
2018-10-16T19:26:52.892Z,19.90
2018-10-16T19:29:24.300Z,19.53
2018-10-16T19:31:56.062Z,20.53
2018-10-16T19:34:27.903Z,24.07
2018-10-16T19:36:59.103Z,26.10
2018-10-16T19:39:30.269Z,20.93
2018-10-16T19:42:01.435Z,22.73
2018-10-16T19:44:32.706Z,23.00
2018-10-16T19:47:03.921Z,21.27
2018-10-16T19:49:35.366Z,24.00
2018-10-16T19:52:06.636Z,23.27
2018-10-16T19:54:38.179Z,25.33
2018-10-16T19:57:09.827Z,19.90
2018-10-16T19:59:41.546Z,27.70
2018-10-16T20:02:12.683Z,25.07
2018-10-16T20:04:44.146Z,21.93
2018-10-16T20:07:15.386Z,21.73
2018-10-16T20:09:47.397Z,21.70
2018-10-16T20:12:19.098Z,21.73
2018-10-16T20:14:50.912Z,23.80
2018-10-16T20:17:22.767Z,23.93
2018-10-16T20:19:54.385Z,23.03
2018-10-16T20:22:25.669Z,20.17
2018-10-16T20:24:57.732Z,20.03
2018-10-16T20:27:29.388Z,25.80
2018-10-16T20:30:00.832Z,22.63
2018-10-16T20:32:32.039Z,25.23
2018-10-16T20:35:03.952Z,24.07
2018-10-16T20:37:35.443Z,24.53
2018-10-16T20:40:06.796Z,21.37
2018-10-16T20:42:38.751Z,25.30
2018-10-16T20:45:10.013Z,22.47
2018-10-16T20:47:41.560Z,24.27
2018-10-16T20:50:12.784Z,23.77
2018-10-16T20:52:44.307Z,22.67
2018-10-16T20:55:15.527Z,28.13
2018-10-16T20:57:46.664Z,22.17
2018-10-16T21:00:18.094Z,24.60
2018-10-16T21:02:49.698Z,21.57
2018-10-16T21:05:21.562Z,20.47
2018-10-16T21:07:52.977Z,22.63
2018-10-16T21:10:24.174Z,22.13
2018-10-16T21:12:55.396Z,22.07
2018-10-16T21:15:27.005Z,25.00
2018-10-16T21:17:58.170Z,21.87
2018-10-16T21:20:29.620Z,20.47
2018-10-16T21:23:01.247Z,21.30
2018-10-16T21:25:32.357Z,23.60
2018-10-16T21:28:03.577Z,26.93
2018-10-16T21:30:35.133Z,25.20
2018-10-16T21:33:06.603Z,23.00
2018-10-16T21:35:38.030Z,21.00
2018-10-16T21:38:09.197Z,21.23
2018-10-16T21:40:40.842Z,26.07
2018-10-16T21:43:12.309Z,23.33
2018-10-16T21:45:44.042Z,23.23
2018-10-16T21:48:15.558Z,22.83
2018-10-16T21:50:46.985Z,24.93
2018-10-16T21:53:18.498Z,22.83
2018-10-16T21:55:49.937Z,20.87
2018-10-16T21:58:21.416Z,23.33
2018-10-16T22:01:12.273Z,22.03
2018-10-16T22:03:43.438Z,22.73
2018-10-16T22:06:14.920Z,27.40
2018-10-16T22:08:46.131Z,23.20
2018-10-16T22:11:17.591Z,25.13
2018-10-16T22:13:49.136Z,24.63
2018-10-16T22:16:20.343Z,27.03
2018-10-16T22:18:51.522Z,26.67
2018-10-16T22:21:22.691Z,26.63
2018-10-16T22:23:54.120Z,26.70
2018-10-16T22:26:25.285Z,29.13
2018-10-16T22:28:56.503Z,23.33
2018-10-16T22:31:28.243Z,24.30
2018-10-16T22:33:59.825Z,27.03
2018-10-16T22:36:31.354Z,24.27
2018-10-16T22:39:02.920Z,21.97
2018-10-16T22:41:34.405Z,27.00
2018-10-16T22:44:05.867Z,27.07
2018-10-16T22:46:37.416Z,22.80
2018-10-16T22:49:09.840Z,27.50
2018-10-16T22:51:41.319Z,25.23
2018-10-16T22:54:12.534Z,27.70
2018-10-16T22:56:44.014Z,29.90
2018-10-16T22:59:15.265Z,25.57
2018-10-16T23:01:47.077Z,23.77
2018-10-16T23:04:18.797Z,27.37
2018-10-16T23:06:50.599Z,27.13
2018-10-16T23:09:22.197Z,24.63
2018-10-16T23:11:53.333Z,22.27
2018-10-16T23:14:24.870Z,22.30
2018-10-16T23:16:56.083Z,30.93
2018-10-16T23:19:27.647Z,25.80
2018-10-16T23:21:59.377Z,26.10
2018-10-16T23:24:31.277Z,25.27
2018-10-16T23:27:02.759Z,25.70
2018-10-16T23:29:34.210Z,25.80
2018-10-16T23:32:05.742Z,23.57
2018-10-16T23:34:37.354Z,23.83
2018-10-16T23:37:08.863Z,23.37
2018-10-16T23:39:40.037Z,26.30
2018-10-16T23:42:11.248Z,21.67
2018-10-16T23:44:42.890Z,20.87
2018-10-16T23:47:14.521Z,22.07
2018-10-16T23:49:45.949Z,27.37
2018-10-16T23:52:17.114Z,25.47
2018-10-16T23:54:48.530Z,24.73
2018-10-16T23:57:19.684Z,24.87
2018-10-16T23:59:50.943Z,25.50
